Terminal Aerodrome Forecast
Issued by NWS

Home | Current Version | Previous Version | Text Only | Print | Product List | Glossary On
Versions: 1 2 3 4 5 6 7 8 9 10 11 12 13 14 15 16 17 18 19 20 21 22 23 24
000
FTUS43 KMQT 261741
TAFSAW
TAF
KSAW 261741Z 2618/2718 VRB03KT P6SM VCTS BKN025CB
     FM261830 23005KT P6SM -TSRA BKN020CB
     FM262000 18004KT P6SM BKN030
     FM262300 16004KT P6SM SCT050 BKN100
     FM270900 22004KT 3/4SM BR SCT003 BKN030
     FM271400 12003KT 1 1/2SM BR BKN030=

USA.gov is the U.S. government's official web portal to all federal, state and local government web resources and services.